createdAt,value
2018-12-19T00:03:38.737Z,85.92
2018-12-19T00:08:45.071Z,85.80
2018-12-19T00:13:49.382Z,86.02
2018-12-19T00:19:02.281Z,86.47
2018-12-19T00:24:18.393Z,86.44
2018-12-19T00:29:31.371Z,86.49
2018-12-19T00:34:49.577Z,86.12
2018-12-19T00:51:20.301Z,86.15
2018-12-19T00:56:27.885Z,85.72
2018-12-19T01:01:35.437Z,86.43
2018-12-19T01:06:40.854Z,86.26
2018-12-19T01:11:45.528Z,85.86
2018-12-19T01:16:51.569Z,85.64
2018-12-19T01:22:09.434Z,86.33
2018-12-19T01:27:16.675Z,86.23
2018-12-19T01:32:21.258Z,85.92
2018-12-19T01:37:25.889Z,86.45
2018-12-19T01:42:33.011Z,85.82
2018-12-19T01:47:41.335Z,86.06
2018-12-19T01:52:45.631Z,86.01
2018-12-19T01:57:50.097Z,86.08
2018-12-19T02:02:55.339Z,86.28
2018-12-19T02:08:01.601Z,85.66
2018-12-19T02:13:06.847Z,85.76
2018-12-19T02:18:12.371Z,85.72
2018-12-19T02:23:17.710Z,85.92
2018-12-19T02:28:25.673Z,85.63
2018-12-19T02:33:31.034Z,85.84
2018-12-19T02:38:37.530Z,86.00
2018-12-19T02:43:44.762Z,85.96
2018-12-19T02:48:50.376Z,85.81
2018-12-19T02:53:56.919Z,86.30
2018-12-19T02:59:02.209Z,86.31
2018-12-19T03:04:10.687Z,85.83
2018-12-19T03:09:17.225Z,85.35
2018-12-19T03:14:21.666Z,85.90
2018-12-19T03:19:26.412Z,85.08
2018-12-19T03:24:31.035Z,85.67
2018-12-19T03:29:36.438Z,85.36
2018-12-19T03:34:40.849Z,85.55
2018-12-19T03:39:50.226Z,85.33
2018-12-19T03:44:51.962Z,85.08
2018-12-19T03:49:56.903Z,84.83
2018-12-19T03:55:01.515Z,85.08
2018-12-19T04:00:06.902Z,84.41
2018-12-19T04:05:12.439Z,83.95
2018-12-19T04:10:17.510Z,84.57
2018-12-19T04:15:21.696Z,84.23
2018-12-19T04:20:27.060Z,84.30
2018-12-19T04:25:31.908Z,84.02
2018-12-19T04:30:41.761Z,84.26
2018-12-19T04:35:46.280Z,83.72
2018-12-19T04:40:50.545Z,83.61
2018-12-19T04:45:54.936Z,84.07
2018-12-19T04:51:05.304Z,83.82
2018-12-19T04:56:09.573Z,84.23
2018-12-19T05:01:13.803Z,83.60
2018-12-19T05:06:18.151Z,83.59
2018-12-19T05:11:22.601Z,83.25
2018-12-19T05:16:27.343Z,82.72
2018-12-19T05:21:41.406Z,82.69
2018-12-19T05:26:45.747Z,82.29
2018-12-19T05:31:50.171Z,82.26
2018-12-19T05:36:55.899Z,82.26
2018-12-19T05:42:01.835Z,82.77
2018-12-19T05:47:06.503Z,83.01
2018-12-19T05:52:10.874Z,82.61
2018-12-19T05:57:15.753Z,82.98
2018-12-19T06:02:30.793Z,82.32
2018-12-19T06:07:35.769Z,82.93
2018-12-19T06:12:40.201Z,82.53
2018-12-19T06:17:46.489Z,82.61
2018-12-19T06:22:51.624Z,82.27
2018-12-19T06:27:56.127Z,82.21
2018-12-19T06:33:12.750Z,82.87
2018-12-19T06:38:20.433Z,82.10
2018-12-19T06:43:24.748Z,82.63
2018-12-19T06:48:29.208Z,82.23
2018-12-19T06:53:33.734Z,82.39
2018-12-19T06:58:38.264Z,82.37
2018-12-19T07:03:42.805Z,82.73
2018-12-19T07:08:47.097Z,82.32
2018-12-19T07:13:52.098Z,81.58
2018-12-19T07:18:56.472Z,81.68
2018-12-19T07:24:05.981Z,81.29
2018-12-19T07:29:10.562Z,81.31
2018-12-19T07:34:15.102Z,81.44
2018-12-19T07:39:19.602Z,81.92
2018-12-19T07:44:24.436Z,81.00
2018-12-19T07:49:29.806Z,80.60
2018-12-19T07:54:34.739Z,79.51
2018-12-19T07:59:54.457Z,78.57
2018-12-19T08:04:59.196Z,77.99
2018-12-19T08:10:04.615Z,77.98
2018-12-19T08:15:09.738Z,78.21
2018-12-19T08:20:14.454Z,78.15
2018-12-19T08:25:19.124Z,78.22
2018-12-19T08:30:28.966Z,78.51
2018-12-19T08:35:33.798Z,77.61
2018-12-19T08:40:38.361Z,77.22
2018-12-19T08:45:43.102Z,77.82
2018-12-19T08:50:47.442Z,77.02
2018-12-19T08:55:56.054Z,76.97
2018-12-19T09:01:00.549Z,76.21
2018-12-19T09:06:05.225Z,75.87
2018-12-19T09:11:09.844Z,76.03
2018-12-19T09:16:14.607Z,76.19
2018-12-19T09:21:19.087Z,76.62
2018-12-19T09:26:23.594Z,76.06
2018-12-19T09:31:28.436Z,76.37
2018-12-19T09:36:32.932Z,76.57
2018-12-19T09:41:38.016Z,76.62
2018-12-19T09:46:45.127Z,76.27
2018-12-19T09:51:50.024Z,76.36
2018-12-19T09:56:55.812Z,76.01
2018-12-19T10:07:14.981Z,75.70
2018-12-19T10:12:19.712Z,75.56
2018-12-19T10:17:24.991Z,75.33
2018-12-19T10:22:32.528Z,75.37
2018-12-19T10:27:37.658Z,75.25
2018-12-19T10:32:42.258Z,75.49
2018-12-19T10:37:46.681Z,75.45
2018-12-19T10:42:51.761Z,76.38
2018-12-19T10:47:56.336Z,75.96
2018-12-19T10:53:00.872Z,75.50
2018-12-19T10:58:05.507Z,74.99
2018-12-19T11:03:10.292Z,75.10
2018-12-19T11:08:15.332Z,74.55
2018-12-19T11:13:20.488Z,74.92
2018-12-19T11:23:45.250Z,74.81
2018-12-19T11:28:51.539Z,74.16
2018-12-19T11:34:05.565Z,73.96
2018-12-19T11:39:10.160Z,73.03
2018-12-19T11:44:15.048Z,73.37
2018-12-19T11:49:19.692Z,73.47
2018-12-19T11:54:24.441Z,73.54
2018-12-19T11:59:28.994Z,73.43
2018-12-19T12:04:33.394Z,73.16
2018-12-19T12:09:39.788Z,72.48
2018-12-19T12:14:44.937Z,73.19
2018-12-19T12:19:50.576Z,73.14
2018-12-19T12:24:55.638Z,73.44
2018-12-19T12:30:00.369Z,74.71
2018-12-19T12:35:08.617Z,76.12
2018-12-19T12:40:13.999Z,77.81
2018-12-19T12:45:18.909Z,79.83
2018-12-19T12:50:23.349Z,80.68
2018-12-19T12:55:29.333Z,82.64
2018-12-19T13:00:42.982Z,82.63
2018-12-19T13:05:48.267Z,83.48
2018-12-19T13:10:52.904Z,83.86
2018-12-19T13:15:58.094Z,85.18
2018-12-19T13:21:02.998Z,85.32
2018-12-19T13:26:08.367Z,86.64
2018-12-19T13:31:18.530Z,87.53
2018-12-19T13:36:23.869Z,88.53
2018-12-19T13:41:28.944Z,89.51
2018-12-19T13:46:34.022Z,90.44
2018-12-19T13:51:38.329Z,90.93
2018-12-19T13:56:44.892Z,91.39
2018-12-19T14:01:49.469Z,92.76
2018-12-19T14:06:53.903Z,92.80
2018-12-19T14:11:58.728Z,93.71
2018-12-19T14:17:03.460Z,93.81
2018-12-19T14:22:07.952Z,94.76
2018-12-19T14:27:12.358Z,95.05
2018-12-19T14:32:16.696Z,94.94
2018-12-19T14:37:21.381Z,95.52
2018-12-19T14:42:25.880Z,95.83
2018-12-19T14:47:30.253Z,96.31
2018-12-19T14:52:34.807Z,96.25
2018-12-19T14:57:39.856Z,96.75
2018-12-19T15:02:44.402Z,96.71
2018-12-19T15:07:48.620Z,96.74
2018-12-19T15:12:53.200Z,96.79
2018-12-19T15:17:57.664Z,97.28
2018-12-19T15:23:02.168Z,96.82
2018-12-19T15:28:06.770Z,96.87
2018-12-19T15:33:11.246Z,96.75
2018-12-19T15:38:15.752Z,96.60
2018-12-19T15:43:20.232Z,96.70
2018-12-19T15:48:24.976Z,97.11
2018-12-19T15:53:29.286Z,96.24
2018-12-19T15:58:33.646Z,95.89
2018-12-19T16:03:47.716Z,95.46
2018-12-19T16:08:52.027Z,94.73
2018-12-19T16:13:56.414Z,93.81
2018-12-19T16:19:01.053Z,94.43
2018-12-19T16:24:05.673Z,93.98
2018-12-19T16:29:10.063Z,94.00
2018-12-19T16:34:14.682Z,94.23
2018-12-19T16:39:19.223Z,94.13
2018-12-19T16:44:23.584Z,93.63
2018-12-19T16:49:27.890Z,93.90
2018-12-19T16:54:37.289Z,93.80
2018-12-19T16:59:41.668Z,94.14
2018-12-19T17:04:46.136Z,93.81
2018-12-19T17:09:50.795Z,93.79
2018-12-19T17:14:55.146Z,94.44
2018-12-19T17:19:59.558Z,94.22
2018-12-19T17:25:03.800Z,94.42
2018-12-19T17:30:09.431Z,94.50
2018-12-19T17:35:14.419Z,94.36
2018-12-19T17:40:18.969Z,94.12
2018-12-19T17:45:24.658Z,94.25
2018-12-19T17:50:29.302Z,93.96
2018-12-19T17:55:35.049Z,94.08
2018-12-19T18:00:40.256Z,94.31
2018-12-19T18:05:45.286Z,94.28
2018-12-19T18:10:52.058Z,94.46
2018-12-19T18:15:56.592Z,93.84
2018-12-19T18:21:01.296Z,93.49
2018-12-19T18:26:06.414Z,94.07
2018-12-19T18:31:11.315Z,93.77
2018-12-19T18:36:16.377Z,94.14
2018-12-19T18:41:26.479Z,93.77
2018-12-19T18:46:32.511Z,93.54
2018-12-19T18:51:39.060Z,93.88
2018-12-19T18:56:44.045Z,93.86
2018-12-19T19:01:49.645Z,93.84
2018-12-19T19:06:54.571Z,93.96
2018-12-19T19:12:00.484Z,94.28
2018-12-19T19:17:05.898Z,94.13
2018-12-19T19:22:18.662Z,93.53
2018-12-19T19:27:23.964Z,93.79
2018-12-19T19:32:42.303Z,94.13
2018-12-19T19:37:47.129Z,94.02
2018-12-19T19:42:51.693Z,93.85
2018-12-19T19:47:55.946Z,93.91
2018-12-19T19:53:00.911Z,93.90
2018-12-19T19:58:09.696Z,93.59
2018-12-19T20:03:19.774Z,93.92
2018-12-19T20:08:24.610Z,93.38
2018-12-19T20:13:33.240Z,93.37
2018-12-19T20:18:35.480Z,93.27
2018-12-19T20:23:40.212Z,92.91
2018-12-19T20:28:44.562Z,93.04
2018-12-19T20:33:53.890Z,92.85
2018-12-19T20:38:58.943Z,92.54
2018-12-19T20:44:03.481Z,92.73
2018-12-19T20:49:08.542Z,92.76
2018-12-19T20:54:13.145Z,93.17
2018-12-19T20:59:20.025Z,92.67
2018-12-19T21:04:26.428Z,92.52
2018-12-19T21:09:31.090Z,92.48
2018-12-19T21:14:35.687Z,93.01
2018-12-19T21:19:40.291Z,93.05
2018-12-19T21:24:44.736Z,92.95
2018-12-19T21:29:49.231Z,92.62
2018-12-19T21:34:54.486Z,92.89
2018-12-19T21:39:58.973Z,93.34
2018-12-19T21:45:03.565Z,93.70
2018-12-19T21:50:09.995Z,93.85
2018-12-19T21:55:15.031Z,94.60
2018-12-19T22:00:24.166Z,94.81
2018-12-19T22:05:29.349Z,95.00
2018-12-19T22:10:34.067Z,95.45
2018-12-19T22:15:38.409Z,95.26
2018-12-19T22:20:45.296Z,95.29
2018-12-19T22:25:52.471Z,95.76
2018-12-19T22:30:56.967Z,94.99
2018-12-19T22:36:01.215Z,95.16
2018-12-19T22:41:05.679Z,95.19
2018-12-19T22:46:10.333Z,95.01
2018-12-19T22:51:15.350Z,95.05
2018-12-19T22:56:20.846Z,94.21
2018-12-19T23:01:37.070Z,93.63
2018-12-19T23:06:41.209Z,93.31
2018-12-19T23:11:46.802Z,93.72
2018-12-19T23:16:51.677Z,92.95
2018-12-19T23:22:01.641Z,92.93
2018-12-19T23:27:12.247Z,92.84
2018-12-19T23:32:22.844Z,92.06
2018-12-19T23:37:27.742Z,92.19
2018-12-19T23:42:33.163Z,91.87
2018-12-19T23:47:37.624Z,92.29
2018-12-19T23:52:47.744Z,91.60
2018-12-19T23:57:52.093Z,92.14
